createdAt,value
2023-04-25T00:01:44.281Z,9.10
2023-04-25T00:06:47.490Z,13.85
2023-04-25T00:11:50.631Z,13.95
2023-04-25T00:16:55.163Z,12.40
2023-04-25T00:21:58.403Z,14.40
2023-04-25T00:27:01.202Z,15.20
2023-04-25T00:32:05.611Z,10.68
2023-04-25T00:37:08.496Z,13.02
2023-04-25T00:42:12.085Z,17.80
2023-04-25T00:47:17.610Z,18.55
2023-04-25T00:52:20.432Z,15.73
2023-04-25T00:57:23.201Z,21.90
2023-04-25T01:02:28.424Z,17.92
2023-04-25T01:07:31.521Z,22.88
2023-04-25T01:12:34.668Z,13.88
2023-04-25T01:17:40.352Z,15.57
2023-04-25T01:22:44.930Z,18.13
2023-04-25T01:27:48.585Z,21.48
2023-04-25T01:32:52.443Z,16.70
2023-04-25T01:37:56.646Z,15.85
2023-04-25T01:42:59.562Z,18.17
2023-04-25T01:48:02.754Z,16.13
2023-04-25T01:53:07.254Z,22.77
2023-04-25T01:58:13.230Z,20.45
2023-04-25T02:03:34.765Z,19.48
2023-04-25T02:08:40.899Z,18.10
2023-04-25T02:13:43.811Z,24.23
2023-04-25T02:19:01.139Z,16.80
2023-04-25T02:24:06.026Z,20.45
2023-04-25T02:29:10.982Z,20.13
2023-04-25T02:34:13.703Z,18.48
2023-04-25T02:39:18.016Z,22.02
2023-04-25T02:44:21.033Z,16.00
2023-04-25T02:49:23.801Z,17.05
2023-04-25T02:54:30.050Z,19.30
2023-04-25T02:59:34.068Z,20.83
2023-04-25T03:04:36.930Z,19.48
2023-04-25T03:09:41.061Z,13.65
2023-04-25T03:14:44.401Z,23.33
2023-04-25T03:19:47.336Z,21.10
2023-04-25T03:24:52.149Z,20.25
2023-04-25T03:29:56.255Z,9.80
2023-04-25T03:34:59.262Z,22.05
2023-04-25T03:40:06.092Z,14.38
2023-04-25T03:45:28.924Z,14.38
2023-04-25T03:50:31.792Z,14.80
2023-04-25T03:55:36.091Z,16.10
2023-04-25T04:00:40.200Z,16.25
2023-04-25T04:05:43.337Z,14.40
2023-04-25T04:10:47.743Z,15.68
2023-04-25T04:15:51.674Z,12.63
2023-04-25T04:20:54.732Z,14.48
2023-04-25T04:25:59.032Z,12.13
2023-04-25T04:31:37.173Z,15.77
2023-04-25T04:36:40.999Z,15.88
2023-04-25T04:41:45.296Z,16.95
2023-04-25T04:47:07.377Z,15.52
2023-04-25T04:52:45.531Z,16.30
2023-04-25T04:58:08.060Z,13.65
2023-04-25T05:03:35.583Z,10.48
2023-04-25T05:08:48.346Z,18.85
2023-04-25T05:14:22.788Z,11.80
2023-04-25T05:19:41.410Z,13.48
2023-04-25T05:24:56.167Z,16.70
2023-04-25T05:30:19.349Z,12.85
2023-04-25T05:35:45.022Z,12.32
2023-04-25T05:40:48.300Z,12.35
2023-04-25T05:46:10.144Z,15.10
2023-04-25T05:51:30.601Z,12.55
2023-04-25T05:57:08.814Z,13.75
2023-04-25T06:02:13.594Z,7.15
2023-04-25T06:07:16.948Z,11.88
2023-04-25T06:12:19.943Z,8.13
2023-04-25T06:17:25.769Z,12.60
2023-04-25T06:22:28.921Z,12.23
2023-04-25T06:27:34.768Z,13.85
2023-04-25T06:32:40.479Z,10.95
2023-04-25T06:37:43.344Z,7.82
2023-04-25T06:42:46.260Z,15.55
2023-04-25T06:48:14.568Z,13.15
2023-04-25T06:53:17.425Z,12.60
2023-04-25T06:58:23.743Z,8.55
2023-04-25T07:03:38.419Z,10.65
2023-04-25T07:08:46.049Z,9.07
2023-04-25T07:13:48.989Z,13.65
2023-04-25T07:18:53.330Z,13.10
2023-04-25T07:23:56.244Z,15.75
2023-04-25T07:29:04.318Z,10.52
2023-04-25T07:34:08.585Z,17.77
2023-04-25T07:39:14.209Z,5.70
2023-04-25T07:44:17.545Z,10.30
2023-04-25T07:49:22.288Z,10.77
2023-04-25T07:54:26.194Z,9.43
2023-04-25T07:59:35.696Z,11.05
2023-04-25T08:04:41.721Z,6.13
2023-04-25T08:09:46.384Z,6.03
2023-04-25T08:14:58.503Z,5.65
2023-04-25T08:20:07.469Z,7.70
2023-04-25T08:25:11.139Z,7.47
2023-04-25T08:30:16.010Z,7.65
2023-04-25T08:35:21.723Z,8.35
2023-04-25T08:40:31.048Z,5.35
2023-04-25T08:45:41.528Z,9.27
2023-04-25T08:50:51.413Z,8.35
2023-04-25T08:55:56.909Z,7.30
2023-04-25T09:01:01.064Z,11.68
2023-04-25T09:06:10.479Z,5.97
2023-04-25T09:11:15.318Z,9.18
2023-04-25T09:16:22.581Z,6.25
2023-04-25T09:21:46.632Z,7.82
2023-04-25T09:26:50.414Z,8.63
2023-04-25T09:31:53.360Z,6.20
2023-04-25T09:36:57.971Z,9.88
2023-04-25T09:42:24.833Z,9.13
2023-04-25T09:47:29.426Z,8.20
2023-04-25T09:52:34.216Z,4.60
2023-04-25T09:57:54.432Z,6.03
2023-04-25T10:02:59.434Z,7.22
2023-04-25T10:08:26.079Z,6.80
2023-04-25T10:13:30.640Z,8.30
2023-04-25T10:18:34.653Z,4.35
2023-04-25T10:23:39.829Z,3.95
2023-04-25T10:29:00.818Z,5.95
2023-04-25T10:34:03.806Z,7.40
2023-04-25T10:39:10.109Z,6.18
2023-04-25T10:44:12.837Z,6.50
2023-04-25T10:49:32.873Z,15.25
2023-04-25T10:54:37.107Z,5.00
2023-04-25T10:59:41.968Z,7.63
2023-04-25T11:04:44.852Z,7.20
2023-04-25T11:09:49.185Z,9.85
2023-04-25T11:14:52.875Z,4.22
2023-04-25T11:19:56.860Z,9.73
2023-04-25T11:25:09.268Z,8.02
2023-04-25T11:30:13.845Z,6.15
2023-04-25T11:35:17.569Z,4.05
2023-04-25T11:40:22.039Z,4.60
2023-04-25T11:45:25.743Z,9.70
2023-04-25T11:50:30.387Z,5.22
2023-04-25T11:55:34.538Z,6.22
2023-04-25T12:00:37.335Z,6.07
2023-04-25T12:05:41.196Z,3.10
2023-04-25T12:10:47.829Z,6.60
2023-04-25T12:15:50.916Z,6.10
2023-04-25T12:20:54.724Z,7.75
2023-04-25T12:25:59.007Z,3.58
2023-04-25T12:31:04.270Z,6.88
2023-04-25T12:36:10.190Z,6.57
2023-04-25T12:41:14.444Z,4.53
2023-04-25T12:46:17.360Z,4.70
2023-04-25T12:51:21.141Z,5.45
2023-04-25T12:56:25.841Z,7.28
2023-04-25T13:01:28.847Z,8.88
2023-04-25T13:06:34.735Z,7.03
2023-04-25T13:11:38.953Z,4.38
2023-04-25T13:16:42.233Z,3.88
2023-04-25T13:21:45.168Z,2.92
2023-04-25T13:26:49.415Z,5.07
2023-04-25T13:31:52.261Z,5.47
2023-04-25T13:36:56.014Z,7.25
2023-04-25T13:42:01.143Z,8.88
2023-04-25T13:47:04.232Z,6.30
2023-04-25T13:52:07.262Z,6.18
2023-04-25T13:57:12.107Z,4.13
2023-04-25T14:02:15.198Z,6.85
2023-04-25T14:07:18.845Z,7.07
2023-04-25T14:12:23.076Z,7.68
2023-04-25T14:17:25.890Z,7.88
2023-04-25T14:22:28.659Z,9.60
2023-04-25T14:27:33.212Z,9.52
2023-04-25T14:32:36.102Z,3.80
2023-04-25T14:37:39.212Z,5.20
2023-04-25T14:42:43.374Z,10.15
2023-04-25T14:47:46.927Z,9.98
2023-04-25T14:52:49.809Z,6.47
2023-04-25T14:57:57.313Z,7.20
2023-04-25T15:03:00.848Z,6.15
2023-04-25T15:08:04.302Z,8.50
2023-04-25T15:13:08.701Z,8.07
2023-04-25T15:18:11.488Z,6.07
2023-04-25T15:23:15.406Z,6.90
2023-04-25T15:28:19.852Z,12.73
2023-04-25T15:33:22.658Z,14.82
2023-04-25T15:38:25.542Z,6.80
2023-04-25T15:43:29.801Z,8.07
2023-04-25T15:48:33.232Z,3.13
2023-04-25T15:53:36.017Z,6.25
2023-04-25T15:58:41.307Z,7.65
2023-04-25T16:03:44.396Z,5.88
2023-04-25T16:08:47.264Z,6.13
2023-04-25T16:13:51.666Z,6.57
2023-04-25T16:18:54.588Z,5.93
2023-04-25T16:23:57.384Z,5.30
2023-04-25T16:29:04.256Z,4.30
2023-04-25T16:34:07.259Z,5.43
2023-04-25T16:39:10.084Z,4.35
2023-04-25T16:44:14.291Z,5.85
2023-04-25T16:49:17.126Z,5.57
2023-04-25T16:54:19.927Z,4.07
2023-04-25T16:59:24.053Z,6.97
2023-04-25T17:04:27.443Z,7.05
2023-04-25T17:09:30.627Z,7.80
2023-04-25T17:14:37.778Z,11.20
2023-04-25T17:19:41.230Z,3.70
2023-04-25T17:24:45.224Z,8.45
2023-04-25T17:29:49.467Z,3.60
2023-04-25T17:34:52.269Z,5.90
2023-04-25T17:39:55.879Z,8.68
2023-04-25T17:45:00.024Z,4.93
2023-04-25T17:50:03.251Z,7.03
2023-04-25T17:55:07.286Z,14.82
2023-04-25T18:00:13.060Z,5.53
2023-04-25T18:05:16.632Z,9.18
2023-04-25T18:10:19.738Z,11.38
2023-04-25T18:15:25.011Z,5.13
2023-04-25T18:20:28.633Z,4.55
2023-04-25T18:25:34.002Z,5.70
2023-04-25T18:30:38.836Z,6.65
2023-04-25T18:35:51.459Z,11.07
2023-04-25T18:41:18.162Z,6.75
2023-04-25T18:46:25.641Z,8.88
2023-04-25T18:51:31.397Z,7.97
2023-04-25T18:56:34.287Z,6.28
2023-04-25T19:01:38.406Z,4.85
2023-04-25T19:06:41.267Z,7.93
2023-04-25T19:11:44.108Z,7.72
2023-04-25T19:16:48.383Z,10.65
2023-04-25T19:21:52.463Z,8.18
2023-04-25T19:26:55.324Z,9.23
2023-04-25T19:31:59.738Z,6.30
2023-04-25T19:37:04.944Z,5.85
2023-04-25T19:42:07.825Z,11.13
2023-04-25T19:47:12.196Z,5.53
2023-04-25T19:52:16.269Z,5.15
2023-04-25T19:57:19.071Z,6.50
2023-04-25T20:02:23.332Z,6.30
2023-04-25T20:07:26.614Z,8.18
2023-04-25T20:12:29.433Z,7.03
2023-04-25T20:17:33.777Z,5.88
2023-04-25T20:22:38.682Z,5.68
2023-04-25T20:27:41.502Z,7.90
2023-04-25T20:32:45.653Z,7.00
2023-04-25T20:37:48.446Z,8.88
2023-04-25T20:42:52.268Z,7.22
2023-04-25T20:47:56.802Z,4.93
2023-04-25T20:52:59.628Z,10.25
2023-04-25T20:58:03.212Z,5.40
2023-04-25T21:03:07.907Z,5.80
2023-04-25T21:08:10.887Z,5.00
2023-04-25T21:13:13.823Z,5.43
2023-04-25T21:18:21.271Z,8.43
2023-04-25T21:23:24.104Z,5.75
2023-04-25T21:28:27.191Z,5.20
2023-04-25T21:33:31.674Z,7.03
2023-04-25T21:38:34.737Z,10.38
2023-04-25T21:43:37.739Z,6.63
2023-04-25T21:48:44.107Z,10.45
2023-04-25T21:53:46.931Z,7.72
2023-04-25T21:58:50.411Z,4.47
2023-04-25T22:03:55.103Z,5.63
2023-04-25T22:08:58.158Z,6.63
2023-04-25T22:14:01.165Z,3.28
2023-04-25T22:19:07.886Z,8.27
2023-04-25T22:24:10.769Z,6.47
2023-04-25T22:29:13.611Z,5.28
2023-04-25T22:34:18.107Z,5.95
2023-04-25T22:39:20.922Z,7.85
2023-04-25T22:44:23.699Z,6.55
2023-04-25T22:49:27.955Z,9.35
2023-04-25T22:54:30.869Z,7.07
2023-04-25T22:59:36.152Z,8.45
2023-04-25T23:04:40.436Z,8.80
2023-04-25T23:09:45.104Z,11.48
2023-04-25T23:14:52.812Z,7.60
2023-04-25T23:19:57.060Z,8.55
2023-04-25T23:25:00.024Z,7.68
2023-04-25T23:30:02.831Z,8.52
2023-04-25T23:35:08.213Z,8.57
2023-04-25T23:40:12.267Z,12.13
2023-04-25T23:45:16.538Z,8.23
2023-04-25T23:50:20.847Z,10.73
2023-04-25T23:55:23.609Z,6.13
